sensor_id;sensor_type;location;lat;lon;timestamp;P1;durP1;ratioP1;P2;durP2;ratioP2
53245;SDS011;39569;51.090;-1.786;2022-07-18T00:00:50;14.90;;;5.20;;
53245;SDS011;39569;51.090;-1.786;2022-07-18T00:03:17;6.63;;;4.75;;
53245;SDS011;39569;51.090;-1.786;2022-07-18T00:05:43;7.40;;;4.82;;
53245;SDS011;39569;51.090;-1.786;2022-07-18T00:08:10;9.38;;;5.32;;
53245;SDS011;39569;51.090;-1.786;2022-07-18T00:10:38;7.43;;;5.18;;
53245;SDS011;39569;51.090;-1.786;2022-07-18T00:13:05;7.50;;;5.40;;
53245;SDS011;39569;51.090;-1.786;2022-07-18T00:15:32;5.85;;;5.07;;
53245;SDS011;39569;51.090;-1.786;2022-07-18T00:17:59;9.00;;;5.35;;
53245;SDS011;39569;51.090;-1.786;2022-07-18T00:20:25;5.82;;;5.32;;
53245;SDS011;39569;51.090;-1.786;2022-07-18T00:22:52;6.07;;;5.13;;
53245;SDS011;39569;51.090;-1.786;2022-07-18T00:25:19;5.57;;;4.70;;
53245;SDS011;39569;51.090;-1.786;2022-07-18T00:27:47;7.88;;;5.03;;
53245;SDS011;39569;51.090;-1.786;2022-07-18T00:30:14;5.05;;;4.55;;
53245;SDS011;39569;51.090;-1.786;2022-07-18T00:32:41;6.25;;;5.10;;
53245;SDS011;39569;51.090;-1.786;2022-07-18T00:35:08;14.45;;;5.50;;
53245;SDS011;39569;51.090;-1.786;2022-07-18T00:37:35;8.15;;;4.82;;
53245;SDS011;39569;51.090;-1.786;2022-07-18T00:40:02;7.32;;;5.10;;
53245;SDS011;39569;51.090;-1.786;2022-07-18T00:42:29;6.65;;;4.40;;
53245;SDS011;39569;51.090;-1.786;2022-07-18T00:44:57;9.73;;;5.70;;
53245;SDS011;39569;51.090;-1.786;2022-07-18T00:47:24;6.53;;;4.60;;
53245;SDS011;39569;51.090;-1.786;2022-07-18T00:49:51;5.05;;;4.75;;
53245;SDS011;39569;51.090;-1.786;2022-07-18T00:52:18;8.85;;;4.40;;
53245;SDS011;39569;51.090;-1.786;2022-07-18T00:54:44;5.97;;;5.38;;
53245;SDS011;39569;51.090;-1.786;2022-07-18T00:57:11;11.90;;;6.43;;
53245;SDS011;39569;51.090;-1.786;2022-07-18T00:59:39;6.57;;;5.53;;
53245;SDS011;39569;51.090;-1.786;2022-07-18T01:02:25;7.05;;;5.00;;
53245;SDS011;39569;51.090;-1.786;2022-07-18T01:04:52;6.07;;;4.30;;
53245;SDS011;39569;51.090;-1.786;2022-07-18T01:07:19;10.32;;;4.78;;
53245;SDS011;39569;51.090;-1.786;2022-07-18T01:09:46;10.98;;;4.20;;
53245;SDS011;39569;51.090;-1.786;2022-07-18T01:12:13;5.07;;;4.30;;
53245;SDS011;39569;51.090;-1.786;2022-07-18T01:14:40;8.80;;;6.93;;
53245;SDS011;39569;51.090;-1.786;2022-07-18T01:17:14;7.93;;;5.57;;
53245;SDS011;39569;51.090;-1.786;2022-07-18T01:19:43;6.97;;;5.22;;
53245;SDS011;39569;51.090;-1.786;2022-07-18T01:22:12;6.00;;;4.03;;
53245;SDS011;39569;51.090;-1.786;2022-07-18T01:24:40;7.00;;;4.78;;
53245;SDS011;39569;51.090;-1.786;2022-07-18T01:27:08;5.00;;;4.60;;
53245;SDS011;39569;51.090;-1.786;2022-07-18T01:29:35;6.20;;;5.53;;
53245;SDS011;39569;51.090;-1.786;2022-07-18T01:32:05;10.45;;;5.15;;
53245;SDS011;39569;51.090;-1.786;2022-07-18T01:34:32;12.40;;;6.70;;
53245;SDS011;39569;51.090;-1.786;2022-07-18T01:36:59;9.80;;;6.07;;
53245;SDS011;39569;51.090;-1.786;2022-07-18T01:39:28;5.47;;;4.97;;
53245;SDS011;39569;51.090;-1.786;2022-07-18T01:41:55;5.00;;;4.50;;
53245;SDS011;39569;51.090;-1.786;2022-07-18T01:44:22;8.70;;;6.53;;
53245;SDS011;39569;51.090;-1.786;2022-07-18T01:46:49;6.18;;;4.88;;
53245;SDS011;39569;51.090;-1.786;2022-07-18T01:49:16;8.27;;;5.05;;
53245;SDS011;39569;51.090;-1.786;2022-07-18T01:51:44;7.35;;;5.35;;
53245;SDS011;39569;51.090;-1.786;2022-07-18T01:54:12;14.60;;;5.53;;
53245;SDS011;39569;51.090;-1.786;2022-07-18T01:56:40;7.18;;;5.45;;
53245;SDS011;39569;51.090;-1.786;2022-07-18T01:59:07;7.63;;;5.95;;
53245;SDS011;39569;51.090;-1.786;2022-07-18T02:01:34;5.60;;;5.10;;
53245;SDS011;39569;51.090;-1.786;2022-07-18T02:04:00;6.90;;;6.22;;
53245;SDS011;39569;51.090;-1.786;2022-07-18T02:06:27;10.88;;;5.40;;
53245;SDS011;39569;51.090;-1.786;2022-07-18T02:08:54;6.40;;;5.80;;
53245;SDS011;39569;51.090;-1.786;2022-07-18T02:11:20;6.95;;;6.35;;
53245;SDS011;39569;51.090;-1.786;2022-07-18T02:13:49;6.28;;;5.68;;
53245;SDS011;39569;51.090;-1.786;2022-07-18T02:16:16;7.80;;;5.15;;
53245;SDS011;39569;51.090;-1.786;2022-07-18T02:18:43;5.80;;;4.93;;
53245;SDS011;39569;51.090;-1.786;2022-07-18T02:21:10;9.00;;;5.72;;
53245;SDS011;39569;51.090;-1.786;2022-07-18T02:23:39;7.60;;;5.68;;
53245;SDS011;39569;51.090;-1.786;2022-07-18T02:26:06;17.58;;;7.28;;
53245;SDS011;39569;51.090;-1.786;2022-07-18T02:28:34;10.35;;;5.60;;
53245;SDS011;39569;51.090;-1.786;2022-07-18T02:31:02;5.72;;;4.38;;
53245;SDS011;39569;51.090;-1.786;2022-07-18T02:33:29;5.75;;;5.15;;
53245;SDS011;39569;51.090;-1.786;2022-07-18T02:35:56;5.47;;;4.97;;
53245;SDS011;39569;51.090;-1.786;2022-07-18T02:38:23;6.07;;;5.18;;
53245;SDS011;39569;51.090;-1.786;2022-07-18T02:40:50;5.18;;;4.78;;
53245;SDS011;39569;51.090;-1.786;2022-07-18T02:43:17;5.60;;;5.10;;
53245;SDS011;39569;51.090;-1.786;2022-07-18T02:45:43;11.65;;;5.82;;
53245;SDS011;39569;51.090;-1.786;2022-07-18T02:48:11;6.97;;;5.60;;
53245;SDS011;39569;51.090;-1.786;2022-07-18T02:50:38;19.20;;;5.53;;
53245;SDS011;39569;51.090;-1.786;2022-07-18T02:53:05;6.10;;;5.50;;
53245;SDS011;39569;51.090;-1.786;2022-07-18T02:55:32;7.70;;;5.82;;
53245;SDS011;39569;51.090;-1.786;2022-07-18T02:57:58;6.93;;;5.88;;
53245;SDS011;39569;51.090;-1.786;2022-07-18T03:00:25;6.35;;;5.55;;
53245;SDS011;39569;51.090;-1.786;2022-07-18T03:02:52;11.60;;;6.28;;
53245;SDS011;39569;51.090;-1.786;2022-07-18T03:05:20;6.60;;;5.95;;
53245;SDS011;39569;51.090;-1.786;2022-07-18T03:07:47;11.50;;;6.20;;
53245;SDS011;39569;51.090;-1.786;2022-07-18T03:10:13;14.82;;;7.55;;
53245;SDS011;39569;51.090;-1.786;2022-07-18T03:12:40;11.02;;;7.45;;
53245;SDS011;39569;51.090;-1.786;2022-07-18T03:15:08;6.43;;;5.82;;
53245;SDS011;39569;51.090;-1.786;2022-07-18T03:17:35;10.77;;;5.88;;
53245;SDS011;39569;51.090;-1.786;2022-07-18T03:20:02;10.27;;;6.30;;
53245;SDS011;39569;51.090;-1.786;2022-07-18T03:22:31;7.28;;;6.50;;
53245;SDS011;39569;51.090;-1.786;2022-07-18T03:24:59;7.85;;;5.68;;
53245;SDS011;39569;51.090;-1.786;2022-07-18T03:27:25;6.75;;;6.05;;
53245;SDS011;39569;51.090;-1.786;2022-07-18T03:29:52;8.88;;;5.75;;
53245;SDS011;39569;51.090;-1.786;2022-07-18T03:32:19;7.07;;;6.37;;
53245;SDS011;39569;51.090;-1.786;2022-07-18T03:34:46;11.23;;;5.82;;
53245;SDS011;39569;51.090;-1.786;2022-07-18T03:37:12;8.10;;;5.80;;
53245;SDS011;39569;51.090;-1.786;2022-07-18T03:39:41;11.77;;;6.75;;
53245;SDS011;39569;51.090;-1.786;2022-07-18T03:42:07;9.30;;;6.63;;
53245;SDS011;39569;51.090;-1.786;2022-07-18T03:44:34;13.55;;;6.70;;
53245;SDS011;39569;51.090;-1.786;2022-07-18T03:47:01;8.45;;;6.80;;
53245;SDS011;39569;51.090;-1.786;2022-07-18T03:49:28;7.35;;;6.07;;
53245;SDS011;39569;51.090;-1.786;2022-07-18T03:51:54;8.60;;;7.53;;
53245;SDS011;39569;51.090;-1.786;2022-07-18T03:54:21;13.30;;;6.38;;
53245;SDS011;39569;51.090;-1.786;2022-07-18T03:56:50;12.93;;;7.07;;
53245;SDS011;39569;51.090;-1.786;2022-07-18T03:59:16;7.18;;;5.88;;
53245;SDS011;39569;51.090;-1.786;2022-07-18T04:01:43;6.75;;;6.13;;
53245;SDS011;39569;51.090;-1.786;2022-07-18T04:04:10;8.15;;;6.57;;
53245;SDS011;39569;51.090;-1.786;2022-07-18T04:06:37;13.48;;;6.10;;
53245;SDS011;39569;51.090;-1.786;2022-07-18T04:09:03;9.32;;;7.30;;
53245;SDS011;39569;51.090;-1.786;2022-07-18T04:11:31;9.10;;;7.28;;
53245;SDS011;39569;51.090;-1.786;2022-07-18T04:13:59;8.13;;;5.72;;
53245;SDS011;39569;51.090;-1.786;2022-07-18T04:16:26;7.05;;;6.10;;
53245;SDS011;39569;51.090;-1.786;2022-07-18T04:18:53;6.90;;;6.30;;
53245;SDS011;39569;51.090;-1.786;2022-07-18T04:21:19;7.10;;;6.18;;
53245;SDS011;39569;51.090;-1.786;2022-07-18T04:23:46;8.98;;;6.28;;
53245;SDS011;39569;51.090;-1.786;2022-07-18T04:26:13;7.47;;;6.78;;
53245;SDS011;39569;51.090;-1.786;2022-07-18T04:28:40;6.60;;;5.95;;
53245;SDS011;39569;51.090;-1.786;2022-07-18T04:31:08;6.85;;;6.05;;
53245;SDS011;39569;51.090;-1.786;2022-07-18T04:33:35;6.63;;;6.03;;
53245;SDS011;39569;51.090;-1.786;2022-07-18T04:36:01;6.95;;;6.25;;
53245;SDS011;39569;51.090;-1.786;2022-07-18T04:38:29;7.13;;;6.20;;
53245;SDS011;39569;51.090;-1.786;2022-07-18T04:40:59;6.38;;;5.28;;
53245;SDS011;39569;51.090;-1.786;2022-07-18T04:43:26;11.82;;;6.32;;
53245;SDS011;39569;51.090;-1.786;2022-07-18T04:45:52;7.28;;;5.85;;
53245;SDS011;39569;51.090;-1.786;2022-07-18T04:48:20;8.23;;;6.22;;
53245;SDS011;39569;51.090;-1.786;2022-07-18T04:50:47;9.70;;;6.97;;
53245;SDS011;39569;51.090;-1.786;2022-07-18T04:53:14;7.68;;;6.18;;
53245;SDS011;39569;51.090;-1.786;2022-07-18T04:55:41;8.90;;;6.60;;
53245;SDS011;39569;51.090;-1.786;2022-07-18T04:58:08;10.30;;;6.15;;
53245;SDS011;39569;51.090;-1.786;2022-07-18T05:00:35;11.55;;;6.43;;
53245;SDS011;39569;51.090;-1.786;2022-07-18T05:03:02;8.35;;;6.32;;
53245;SDS011;39569;51.090;-1.786;2022-07-18T05:05:30;8.13;;;6.38;;
53245;SDS011;39569;51.090;-1.786;2022-07-18T05:07:57;13.43;;;8.05;;
53245;SDS011;39569;51.090;-1.786;2022-07-18T05:10:24;8.75;;;6.57;;
53245;SDS011;39569;51.090;-1.786;2022-07-18T05:12:51;12.75;;;6.78;;
53245;SDS011;39569;51.090;-1.786;2022-07-18T05:15:21;7.20;;;6.30;;
53245;SDS011;39569;51.090;-1.786;2022-07-18T05:17:49;7.60;;;6.43;;
53245;SDS011;39569;51.090;-1.786;2022-07-18T05:20:17;5.75;;;5.22;;
53245;SDS011;39569;51.090;-1.786;2022-07-18T05:22:46;11.85;;;6.28;;
53245;SDS011;39569;51.090;-1.786;2022-07-18T05:25:14;11.32;;;7.45;;
53245;SDS011;39569;51.090;-1.786;2022-07-18T05:27:41;9.48;;;7.40;;
53245;SDS011;39569;51.090;-1.786;2022-07-18T05:30:09;9.27;;;6.72;;
53245;SDS011;39569;51.090;-1.786;2022-07-18T05:32:37;8.07;;;7.28;;
53245;SDS011;39569;51.090;-1.786;2022-07-18T05:35:05;8.82;;;5.88;;
53245;SDS011;39569;51.090;-1.786;2022-07-18T05:37:33;7.57;;;6.22;;
53245;SDS011;39569;51.090;-1.786;2022-07-18T05:40:04;7.47;;;5.37;;
53245;SDS011;39569;51.090;-1.786;2022-07-18T05:42:32;9.47;;;6.47;;
53245;SDS011;39569;51.090;-1.786;2022-07-18T05:44:59;16.90;;;7.07;;
53245;SDS011;39569;51.090;-1.786;2022-07-18T05:47:26;7.68;;;6.95;;
53245;SDS011;39569;51.090;-1.786;2022-07-18T05:49:53;10.82;;;5.78;;
53245;SDS011;39569;51.090;-1.786;2022-07-18T05:52:20;13.43;;;6.40;;
53245;SDS011;39569;51.090;-1.786;2022-07-18T05:54:47;15.38;;;5.50;;
53245;SDS011;39569;51.090;-1.786;2022-07-18T05:57:15;11.15;;;6.32;;
53245;SDS011;39569;51.090;-1.786;2022-07-18T05:59:42;14.90;;;6.80;;
53245;SDS011;39569;51.090;-1.786;2022-07-18T06:02:08;9.88;;;6.50;;
53245;SDS011;39569;51.090;-1.786;2022-07-18T06:04:35;16.17;;;5.95;;
53245;SDS011;39569;51.090;-1.786;2022-07-18T06:07:02;7.57;;;6.60;;
53245;SDS011;39569;51.090;-1.786;2022-07-18T06:09:29;5.47;;;4.97;;
53245;SDS011;39569;51.090;-1.786;2022-07-18T06:11:56;7.90;;;5.78;;
53245;SDS011;39569;51.090;-1.786;2022-07-18T06:14:26;14.27;;;7.25;;
53245;SDS011;39569;51.090;-1.786;2022-07-18T06:16:53;9.85;;;7.38;;
53245;SDS011;39569;51.090;-1.786;2022-07-18T06:19:20;8.32;;;6.15;;
53245;SDS011;39569;51.090;-1.786;2022-07-18T06:21:47;7.05;;;5.50;;
53245;SDS011;39569;51.090;-1.786;2022-07-18T06:24:14;12.55;;;6.22;;
53245;SDS011;39569;51.090;-1.786;2022-07-18T06:26:41;11.63;;;5.90;;
53245;SDS011;39569;51.090;-1.786;2022-07-18T06:29:08;8.40;;;6.05;;
53245;SDS011;39569;51.090;-1.786;2022-07-18T06:31:37;14.43;;;6.72;;
53245;SDS011;39569;51.090;-1.786;2022-07-18T06:34:03;14.38;;;7.47;;
53245;SDS011;39569;51.090;-1.786;2022-07-18T06:36:30;9.77;;;6.93;;
53245;SDS011;39569;51.090;-1.786;2022-07-18T06:38:57;9.90;;;6.15;;
53245;SDS011;39569;51.090;-1.786;2022-07-18T06:41:24;6.85;;;5.82;;
53245;SDS011;39569;51.090;-1.786;2022-07-18T06:43:51;10.17;;;7.23;;
53245;SDS011;39569;51.090;-1.786;2022-07-18T06:46:17;11.40;;;6.72;;
53245;SDS011;39569;51.090;-1.786;2022-07-18T06:48:46;12.48;;;6.80;;
53245;SDS011;39569;51.090;-1.786;2022-07-18T06:51:13;7.95;;;6.15;;
53245;SDS011;39569;51.090;-1.786;2022-07-18T06:53:39;11.50;;;6.78;;
53245;SDS011;39569;51.090;-1.786;2022-07-18T06:56:06;8.18;;;6.00;;
53245;SDS011;39569;51.090;-1.786;2022-07-18T06:58:33;14.68;;;5.00;;
53245;SDS011;39569;51.090;-1.786;2022-07-18T07:01:00;8.90;;;6.45;;
53245;SDS011;39569;51.090;-1.786;2022-07-18T07:03:27;8.75;;;5.78;;
53245;SDS011;39569;51.090;-1.786;2022-07-18T07:05:55;9.00;;;6.85;;
53245;SDS011;39569;51.090;-1.786;2022-07-18T07:08:21;14.40;;;6.50;;
53245;SDS011;39569;51.090;-1.786;2022-07-18T07:10:48;7.85;;;6.28;;
53245;SDS011;39569;51.090;-1.786;2022-07-18T07:13:15;6.18;;;5.25;;
53245;SDS011;39569;51.090;-1.786;2022-07-18T07:15:42;14.38;;;8.25;;
53245;SDS011;39569;51.090;-1.786;2022-07-18T07:18:08;7.28;;;6.55;;
53245;SDS011;39569;51.090;-1.786;2022-07-18T07:20:36;25.05;;;5.95;;
53245;SDS011;39569;51.090;-1.786;2022-07-18T07:23:04;9.18;;;5.68;;
53245;SDS011;39569;51.090;-1.786;2022-07-18T07:25:33;10.18;;;6.75;;
53245;SDS011;39569;51.090;-1.786;2022-07-18T07:28:00;12.80;;;5.82;;
53245;SDS011;39569;51.090;-1.786;2022-07-18T07:30:27;9.98;;;6.63;;
53245;SDS011;39569;51.090;-1.786;2022-07-18T07:32:54;8.80;;;5.85;;
53245;SDS011;39569;51.090;-1.786;2022-07-18T07:35:21;10.13;;;5.43;;
53245;SDS011;39569;51.090;-1.786;2022-07-18T07:37:49;25.38;;;6.97;;
53245;SDS011;39569;51.090;-1.786;2022-07-18T07:40:18;16.95;;;6.20;;
53245;SDS011;39569;51.090;-1.786;2022-07-18T07:42:45;17.35;;;5.88;;
53245;SDS011;39569;51.090;-1.786;2022-07-18T07:45:12;5.87;;;4.97;;
53245;SDS011;39569;51.090;-1.786;2022-07-18T07:47:40;7.57;;;5.33;;
53245;SDS011;39569;51.090;-1.786;2022-07-18T07:50:08;10.20;;;5.27;;
53245;SDS011;39569;51.090;-1.786;2022-07-18T07:52:36;6.35;;;4.32;;
53245;SDS011;39569;51.090;-1.786;2022-07-18T07:55:03;7.15;;;4.65;;
53245;SDS011;39569;51.090;-1.786;2022-07-18T07:57:32;9.55;;;5.95;;
53245;SDS011;39569;51.090;-1.786;2022-07-18T08:00:01;6.57;;;4.88;;
53245;SDS011;39569;51.090;-1.786;2022-07-18T08:02:29;6.97;;;5.07;;
53245;SDS011;39569;51.090;-1.786;2022-07-18T08:04:56;5.22;;;4.75;;
53245;SDS011;39569;51.090;-1.786;2022-07-18T08:07:23;7.90;;;4.47;;
53245;SDS011;39569;51.090;-1.786;2022-07-18T08:09:49;13.68;;;4.25;;
53245;SDS011;39569;51.090;-1.786;2022-07-18T08:12:16;7.78;;;5.13;;
53245;SDS011;39569;51.090;-1.786;2022-07-18T08:14:45;6.97;;;4.75;;
53245;SDS011;39569;51.090;-1.786;2022-07-18T08:17:11;13.55;;;5.13;;
53245;SDS011;39569;51.090;-1.786;2022-07-18T08:19:38;18.48;;;4.93;;
53245;SDS011;39569;51.090;-1.786;2022-07-18T08:22:05;8.60;;;5.13;;
53245;SDS011;39569;51.090;-1.786;2022-07-18T08:24:32;6.53;;;5.32;;
53245;SDS011;39569;51.090;-1.786;2022-07-18T08:26:59;4.88;;;4.28;;
53245;SDS011;39569;51.090;-1.786;2022-07-18T08:29:26;9.07;;;4.75;;
53245;SDS011;39569;51.090;-1.786;2022-07-18T08:31:54;6.97;;;4.28;;
53245;SDS011;39569;51.090;-1.786;2022-07-18T08:34:20;7.47;;;4.63;;
53245;SDS011;39569;51.090;-1.786;2022-07-18T08:36:47;10.75;;;5.13;;
53245;SDS011;39569;51.090;-1.786;2022-07-18T08:39:14;6.03;;;4.10;;
53245;SDS011;39569;51.090;-1.786;2022-07-18T08:41:41;6.50;;;5.10;;
53245;SDS011;39569;51.090;-1.786;2022-07-18T08:44:11;9.13;;;4.70;;
53245;SDS011;39569;51.090;-1.786;2022-07-18T08:46:39;5.47;;;4.18;;
53245;SDS011;39569;51.090;-1.786;2022-07-18T08:49:07;7.53;;;4.35;;
53245;SDS011;39569;51.090;-1.786;2022-07-18T08:51:34;6.90;;;3.83;;
53245;SDS011;39569;51.090;-1.786;2022-07-18T08:54:01;6.40;;;3.83;;
53245;SDS011;39569;51.090;-1.786;2022-07-18T08:56:28;9.30;;;3.83;;
53245;SDS011;39569;51.090;-1.786;2022-07-18T08:58:55;6.38;;;4.32;;
53245;SDS011;39569;51.090;-1.786;2022-07-18T09:01:22;7.65;;;4.18;;
53245;SDS011;39569;51.090;-1.786;2022-07-18T09:03:49;8.75;;;4.28;;
53245;SDS011;39569;51.090;-1.786;2022-07-18T09:06:43;4.75;;;3.88;;
53245;SDS011;39569;51.090;-1.786;2022-07-18T09:09:11;5.57;;;4.03;;
53245;SDS011;39569;51.090;-1.786;2022-07-18T09:11:48;8.30;;;3.78;;
53245;SDS011;39569;51.090;-1.786;2022-07-18T09:14:29;6.18;;;4.05;;
53245;SDS011;39569;51.090;-1.786;2022-07-18T09:17:02;8.27;;;4.28;;
53245;SDS011;39569;51.090;-1.786;2022-07-18T09:19:30;8.05;;;4.20;;
53245;SDS011;39569;51.090;-1.786;2022-07-18T09:22:14;10.65;;;4.38;;
53245;SDS011;39569;51.090;-1.786;2022-07-18T09:24:57;7.15;;;4.28;;
53245;SDS011;39569;51.090;-1.786;2022-07-18T09:27:27;6.18;;;4.10;;
53245;SDS011;39569;51.090;-1.786;2022-07-18T09:30:12;9.48;;;4.13;;
53245;SDS011;39569;51.090;-1.786;2022-07-18T09:32:42;9.88;;;4.10;;
53245;SDS011;39569;51.090;-1.786;2022-07-18T09:35:11;4.35;;;3.30;;
53245;SDS011;39569;51.090;-1.786;2022-07-18T09:37:42;7.47;;;3.33;;
53245;SDS011;39569;51.090;-1.786;2022-07-18T09:40:22;8.90;;;4.72;;
53245;SDS011;39569;51.090;-1.786;2022-07-18T09:42:50;5.97;;;3.70;;
53245;SDS011;39569;51.090;-1.786;2022-07-18T09:45:25;6.65;;;3.70;;
53245;SDS011;39569;51.090;-1.786;2022-07-18T09:47:55;4.22;;;3.20;;
53245;SDS011;39569;51.090;-1.786;2022-07-18T09:50:24;5.43;;;3.55;;
53245;SDS011;39569;51.090;-1.786;2022-07-18T09:53:02;3.83;;;3.40;;
53245;SDS011;39569;51.090;-1.786;2022-07-18T09:55:33;4.22;;;3.42;;
53245;SDS011;39569;51.090;-1.786;2022-07-18T09:58:03;10.98;;;4.40;;
53245;SDS011;39569;51.090;-1.786;2022-07-18T10:00:32;4.10;;;3.78;;
53245;SDS011;39569;51.090;-1.786;2022-07-18T10:03:01;5.63;;;3.65;;
53245;SDS011;39569;51.090;-1.786;2022-07-18T10:05:30;4.00;;;3.20;;
53245;SDS011;39569;51.090;-1.786;2022-07-18T10:07:58;5.93;;;3.45;;
53245;SDS011;39569;51.090;-1.786;2022-07-18T10:10:28;3.05;;;2.67;;
53245;SDS011;39569;51.090;-1.786;2022-07-18T10:12:56;3.65;;;3.03;;
53245;SDS011;39569;51.090;-1.786;2022-07-18T10:15:25;4.60;;;3.28;;
53245;SDS011;39569;51.090;-1.786;2022-07-18T10:17:53;4.10;;;3.42;;
53245;SDS011;39569;51.090;-1.786;2022-07-18T10:20:24;5.22;;;3.33;;
53245;SDS011;39569;51.090;-1.786;2022-07-18T10:22:53;3.05;;;2.85;;
53245;SDS011;39569;51.090;-1.786;2022-07-18T10:25:22;5.75;;;3.20;;
53245;SDS011;39569;51.090;-1.786;2022-07-18T10:27:51;11.68;;;3.13;;
53245;SDS011;39569;51.090;-1.786;2022-07-18T10:30:29;6.78;;;3.15;;
53245;SDS011;39569;51.090;-1.786;2022-07-18T10:33:01;9.65;;;3.58;;
53245;SDS011;39569;51.090;-1.786;2022-07-18T10:38:26;3.88;;;3.17;;
53245;SDS011;39569;51.090;-1.786;2022-07-18T10:41:03;4.88;;;3.30;;
53245;SDS011;39569;51.090;-1.786;2022-07-18T10:43:33;5.30;;;3.63;;
53245;SDS011;39569;51.090;-1.786;2022-07-18T10:46:02;13.93;;;4.18;;
53245;SDS011;39569;51.090;-1.786;2022-07-18T10:51:16;4.30;;;3.90;;
53245;SDS011;39569;51.090;-1.786;2022-07-18T10:53:56;10.48;;;4.05;;
53245;SDS011;39569;51.090;-1.786;2022-07-18T10:59:37;5.78;;;3.00;;
53245;SDS011;39569;51.090;-1.786;2022-07-18T11:02:06;3.55;;;3.30;;
53245;SDS011;39569;51.090;-1.786;2022-07-18T11:04:35;4.10;;;2.67;;
53245;SDS011;39569;51.090;-1.786;2022-07-18T11:07:04;3.30;;;2.95;;
53245;SDS011;39569;51.090;-1.786;2022-07-18T11:09:38;7.43;;;3.50;;
53245;SDS011;39569;51.090;-1.786;2022-07-18T11:12:25;2.95;;;2.75;;
53245;SDS011;39569;51.090;-1.786;2022-07-18T11:14:58;3.83;;;2.83;;
53245;SDS011;39569;51.090;-1.786;2022-07-18T11:20:35;2.67;;;2.50;;
53245;SDS011;39569;51.090;-1.786;2022-07-18T11:23:04;2.63;;;2.40;;
53245;SDS011;39569;51.090;-1.786;2022-07-18T11:25:39;2.05;;;1.92;;
53245;SDS011;39569;51.090;-1.786;2022-07-18T11:28:07;2.28;;;2.08;;
53245;SDS011;39569;51.090;-1.786;2022-07-18T11:30:35;5.38;;;2.58;;
53245;SDS011;39569;51.090;-1.786;2022-07-18T11:33:03;3.05;;;2.83;;
53245;SDS011;39569;51.090;-1.786;2022-07-18T11:35:31;7.00;;;2.30;;
53245;SDS011;39569;51.090;-1.786;2022-07-18T11:38:03;3.45;;;2.25;;
53245;SDS011;39569;51.090;-1.786;2022-07-18T11:40:30;2.92;;;2.70;;
53245;SDS011;39569;51.090;-1.786;2022-07-18T11:42:58;6.22;;;2.05;;
53245;SDS011;39569;51.090;-1.786;2022-07-18T11:45:24;3.90;;;2.88;;
53245;SDS011;39569;51.090;-1.786;2022-07-18T11:47:52;3.50;;;2.38;;
53245;SDS011;39569;51.090;-1.786;2022-07-18T11:50:26;3.58;;;2.88;;
53245;SDS011;39569;51.090;-1.786;2022-07-18T11:53:00;3.22;;;2.63;;
53245;SDS011;39569;51.090;-1.786;2022-07-18T11:55:33;2.30;;;2.10;;
53245;SDS011;39569;51.090;-1.786;2022-07-18T11:58:07;4.20;;;2.63;;
53245;SDS011;39569;51.090;-1.786;2022-07-18T12:00:34;4.00;;;2.43;;
53245;SDS011;39569;51.090;-1.786;2022-07-18T12:03:10;5.28;;;2.42;;
53245;SDS011;39569;51.090;-1.786;2022-07-18T12:05:40;3.33;;;2.85;;
53245;SDS011;39569;51.090;-1.786;2022-07-18T12:11:06;8.02;;;2.90;;
53245;SDS011;39569;51.090;-1.786;2022-07-18T12:13:48;2.55;;;2.35;;
53245;SDS011;39569;51.090;-1.786;2022-07-18T12:16:24;2.63;;;2.33;;
53245;SDS011;39569;51.090;-1.786;2022-07-18T12:18:56;2.28;;;2.05;;
53245;SDS011;39569;51.090;-1.786;2022-07-18T12:21:24;2.63;;;2.15;;
53245;SDS011;39569;51.090;-1.786;2022-07-18T12:24:16;2.15;;;2.05;;
53245;SDS011;39569;51.090;-1.786;2022-07-18T12:27:06;2.30;;;2.15;;
53245;SDS011;39569;51.090;-1.786;2022-07-18T12:32:21;2.25;;;2.15;;
53245;SDS011;39569;51.090;-1.786;2022-07-18T12:34:57;2.17;;;2.08;;
53245;SDS011;39569;51.090;-1.786;2022-07-18T12:37:26;2.28;;;2.17;;
53245;SDS011;39569;51.090;-1.786;2022-07-18T12:39:58;7.78;;;2.33;;
53245;SDS011;39569;51.090;-1.786;2022-07-18T12:42:29;2.63;;;2.22;;
53245;SDS011;39569;51.090;-1.786;2022-07-18T12:44:57;2.05;;;1.95;;
53245;SDS011;39569;51.090;-1.786;2022-07-18T12:47:24;2.03;;;1.90;;
53245;SDS011;39569;51.090;-1.786;2022-07-18T12:49:51;2.95;;;1.98;;
53245;SDS011;39569;51.090;-1.786;2022-07-18T12:52:20;2.53;;;2.10;;
53245;SDS011;39569;51.090;-1.786;2022-07-18T12:54:46;1.73;;;1.63;;
53245;SDS011;39569;51.090;-1.786;2022-07-18T12:57:14;2.72;;;1.88;;
53245;SDS011;39569;51.090;-1.786;2022-07-18T12:59:41;4.38;;;2.60;;
53245;SDS011;39569;51.090;-1.786;2022-07-18T13:02:08;4.50;;;2.10;;
53245;SDS011;39569;51.090;-1.786;2022-07-18T13:04:35;7.28;;;2.08;;
53245;SDS011;39569;51.090;-1.786;2022-07-18T13:07:01;3.70;;;2.25;;
53245;SDS011;39569;51.090;-1.786;2022-07-18T13:09:30;3.83;;;2.60;;
53245;SDS011;39569;51.090;-1.786;2022-07-18T13:11:57;2.50;;;1.92;;
53245;SDS011;39569;51.090;-1.786;2022-07-18T13:14:24;2.38;;;1.75;;
53245;SDS011;39569;51.090;-1.786;2022-07-18T13:16:51;5.25;;;2.10;;
53245;SDS011;39569;51.090;-1.786;2022-07-18T13:19:19;2.22;;;1.77;;
53245;SDS011;39569;51.090;-1.786;2022-07-18T13:21:46;2.80;;;2.05;;
53245;SDS011;39569;51.090;-1.786;2022-07-18T13:24:14;3.78;;;2.10;;
53245;SDS011;39569;51.090;-1.786;2022-07-18T13:26:42;8.77;;;2.28;;
53245;SDS011;39569;51.090;-1.786;2022-07-18T13:29:09;3.33;;;2.40;;
53245;SDS011;39569;51.090;-1.786;2022-07-18T13:31:36;1.83;;;1.73;;
53245;SDS011;39569;51.090;-1.786;2022-07-18T13:34:03;4.65;;;2.38;;
53245;SDS011;39569;51.090;-1.786;2022-07-18T13:36:30;4.15;;;1.73;;
53245;SDS011;39569;51.090;-1.786;2022-07-18T13:38:58;3.42;;;2.35;;
53245;SDS011;39569;51.090;-1.786;2022-07-18T13:41:26;1.50;;;1.40;;
53245;SDS011;39569;51.090;-1.786;2022-07-18T13:43:54;2.25;;;2.00;;
53245;SDS011;39569;51.090;-1.786;2022-07-18T13:46:21;2.58;;;2.38;;
53245;SDS011;39569;51.090;-1.786;2022-07-18T13:48:48;3.00;;;2.70;;
53245;SDS011;39569;51.090;-1.786;2022-07-18T13:51:15;2.10;;;1.83;;
53245;SDS011;39569;51.090;-1.786;2022-07-18T13:53:42;2.55;;;2.28;;
53245;SDS011;39569;51.090;-1.786;2022-07-18T13:56:09;5.35;;;1.67;;
53245;SDS011;39569;51.090;-1.786;2022-07-18T13:58:36;3.80;;;2.08;;
53245;SDS011;39569;51.090;-1.786;2022-07-18T14:01:05;2.88;;;2.63;;
53245;SDS011;39569;51.090;-1.786;2022-07-18T14:03:32;1.58;;;1.48;;
53245;SDS011;39569;51.090;-1.786;2022-07-18T14:05:59;1.90;;;1.67;;
53245;SDS011;39569;51.090;-1.786;2022-07-18T14:08:25;1.70;;;1.60;;
53245;SDS011;39569;51.090;-1.786;2022-07-18T14:10:52;1.92;;;1.83;;
53245;SDS011;39569;51.090;-1.786;2022-07-18T14:13:19;2.63;;;2.40;;
53245;SDS011;39569;51.090;-1.786;2022-07-18T14:15:46;1.60;;;1.50;;
53245;SDS011;39569;51.090;-1.786;2022-07-18T14:18:14;2.67;;;1.95;;
53245;SDS011;39569;51.090;-1.786;2022-07-18T14:20:41;2.92;;;2.30;;
53245;SDS011;39569;51.090;-1.786;2022-07-18T14:23:07;2.38;;;2.20;;
53245;SDS011;39569;51.090;-1.786;2022-07-18T14:25:34;2.40;;;2.20;;
53245;SDS011;39569;51.090;-1.786;2022-07-18T14:28:01;2.58;;;2.38;;
53245;SDS011;39569;51.090;-1.786;2022-07-18T14:30:28;6.50;;;2.17;;
53245;SDS011;39569;51.090;-1.786;2022-07-18T14:32:54;9.80;;;2.70;;
53245;SDS011;39569;51.090;-1.786;2022-07-18T14:35:23;2.93;;;2.63;;
53245;SDS011;39569;51.090;-1.786;2022-07-18T14:37:49;2.80;;;2.47;;
53245;SDS011;39569;51.090;-1.786;2022-07-18T14:40:16;3.08;;;2.70;;
53245;SDS011;39569;51.090;-1.786;2022-07-18T14:42:44;1.96;;;1.86;;
53245;SDS011;39569;51.090;-1.786;2022-07-18T14:45:12;2.97;;;2.30;;
53245;SDS011;39569;51.090;-1.786;2022-07-18T14:47:39;3.35;;;2.28;;
53245;SDS011;39569;51.090;-1.786;2022-07-18T14:50:06;5.47;;;3.22;;
53245;SDS011;39569;51.090;-1.786;2022-07-18T14:52:36;4.25;;;3.33;;
53245;SDS011;39569;51.090;-1.786;2022-07-18T14:55:03;3.05;;;2.83;;